createdAt,value
2023-04-25T00:00:11.504Z,101131.81
2023-04-25T00:02:38.429Z,101093.84
2023-04-25T00:05:06.219Z,101124.34
2023-04-25T00:07:35.178Z,101122.31
2023-04-25T00:10:04.316Z,101108.91
2023-04-25T00:12:31.220Z,101127.31
2023-04-25T00:14:58.071Z,101145.72
2023-04-25T00:17:28.057Z,101139.88
2023-04-25T00:19:57.657Z,101145.41
2023-04-25T00:22:24.626Z,101150.06
2023-04-25T00:24:54.657Z,101144.34
2023-04-25T00:27:21.518Z,101146.16
2023-04-25T00:29:48.413Z,101138.38
2023-04-25T00:32:15.139Z,101107.97
2023-04-25T00:34:41.896Z,101153.22
2023-04-25T00:37:08.581Z,101145.09
2023-04-25T00:39:35.270Z,101150.41
2023-04-25T00:42:03.026Z,101145.41
2023-04-25T00:44:31.705Z,101131.78
2023-04-25T00:47:01.108Z,101131.16
2023-04-25T00:49:27.854Z,101141.44
2023-04-25T00:51:55.584Z,101146.16
2023-04-25T00:54:22.302Z,101140.22
2023-04-25T00:56:48.955Z,101144.69
2023-04-25T00:59:16.437Z,101145.63
2023-04-25T01:01:45.185Z,101150.72
2023-04-25T01:04:12.259Z,101143.38
2023-04-25T01:06:39.445Z,101155.81
2023-04-25T01:09:06.589Z,101141.00
2023-04-25T01:11:33.299Z,101149.78
2023-04-25T01:14:03.039Z,101108.09
2023-04-25T01:16:30.929Z,101142.94
2023-04-25T01:18:57.719Z,101140.44
2023-04-25T01:21:27.276Z,101156.13
2023-04-25T01:23:55.308Z,101138.38
2023-04-25T01:26:22.584Z,101159.38
2023-04-25T01:28:49.987Z,101164.34
2023-04-25T01:31:18.032Z,101172.16
2023-04-25T01:33:45.260Z,101142.72
2023-04-25T01:36:12.335Z,101159.69
2023-04-25T01:38:42.488Z,101173.31
2023-04-25T01:41:09.311Z,101169.75
2023-04-25T01:43:36.679Z,101171.94
2023-04-25T01:46:03.654Z,101161.00
2023-04-25T01:48:30.583Z,101180.59
2023-04-25T01:50:57.243Z,101172.91
2023-04-25T01:53:24.844Z,101160.25
2023-04-25T01:55:51.696Z,101174.66
2023-04-25T01:58:18.415Z,101187.97
2023-04-25T02:00:45.796Z,101186.34
2023-04-25T02:03:12.607Z,101186.97
2023-04-25T02:05:40.595Z,101189.03
2023-04-25T02:08:13.522Z,101188.41
2023-04-25T02:10:42.444Z,101175.81
2023-04-25T02:13:09.118Z,101197.06
2023-04-25T02:15:38.519Z,101191.19
2023-04-25T02:18:07.938Z,101190.78
2023-04-25T02:20:35.860Z,101202.56
2023-04-25T02:23:02.960Z,101202.22
2023-04-25T02:25:29.751Z,101199.72
2023-04-25T02:27:56.472Z,101203.63
2023-04-25T02:30:25.315Z,101204.50
2023-04-25T02:32:54.300Z,101211.97
2023-04-25T02:35:23.297Z,101191.81
2023-04-25T02:37:52.167Z,101210.41
2023-04-25T02:40:21.522Z,101179.25
2023-04-25T02:42:48.101Z,101171.97
2023-04-25T02:45:17.578Z,101202.28
2023-04-25T02:47:46.701Z,101205.66
2023-04-25T02:50:16.003Z,101209.31
2023-04-25T02:52:45.149Z,101209.31
2023-04-25T02:55:12.034Z,101198.28
2023-04-25T02:57:38.893Z,101208.56
2023-04-25T03:00:06.793Z,101198.72
2023-04-25T03:02:33.414Z,101209.56
2023-04-25T03:05:00.029Z,101184.03
2023-04-25T03:07:26.693Z,101206.13
2023-04-25T03:09:56.669Z,101190.97
2023-04-25T03:12:26.187Z,101193.34
2023-04-25T03:14:55.018Z,101168.47
2023-04-25T03:17:26.568Z,101189.00
2023-04-25T03:19:53.234Z,101211.47
2023-04-25T03:22:20.007Z,101194.88
2023-04-25T03:24:46.808Z,101214.16
2023-04-25T03:27:13.611Z,101210.88
2023-04-25T03:29:41.639Z,101214.88
2023-04-25T03:32:10.564Z,101213.34
2023-04-25T03:34:37.419Z,101211.19
2023-04-25T03:37:04.170Z,101189.66
2023-04-25T03:39:31.029Z,101177.06
2023-04-25T03:41:57.616Z,101202.97
2023-04-25T03:44:25.553Z,101211.50
2023-04-25T03:46:52.208Z,101207.72
2023-04-25T03:49:21.219Z,101156.38
2023-04-25T03:51:47.846Z,101208.72
2023-04-25T03:54:14.618Z,101183.44
2023-04-25T03:56:41.314Z,101187.34
2023-04-25T03:59:10.299Z,101219.06
2023-04-25T04:01:39.349Z,101210.38
2023-04-25T04:04:06.093Z,101226.31
2023-04-25T04:06:33.245Z,101226.31
2023-04-25T04:08:59.882Z,101232.50
2023-04-25T04:11:27.061Z,101233.16
2023-04-25T04:13:53.826Z,101226.31
2023-04-25T04:16:20.619Z,101232.06
2023-04-25T04:18:49.844Z,101245.25
2023-04-25T04:21:19.003Z,101247.00
2023-04-25T04:23:45.866Z,101243.66
2023-04-25T04:26:14.052Z,101245.91
2023-04-25T04:28:40.955Z,101226.63
2023-04-25T04:31:08.887Z,101250.06
2023-04-25T04:33:35.852Z,101239.34
2023-04-25T04:36:03.824Z,101234.88
2023-04-25T04:38:33.699Z,101260.91
2023-04-25T04:41:00.501Z,101251.78
2023-04-25T04:43:27.170Z,101264.47
2023-04-25T04:45:57.412Z,101245.75
2023-04-25T04:48:24.041Z,101259.63
2023-04-25T04:50:50.827Z,101255.41
2023-04-25T04:53:17.568Z,101256.38
2023-04-25T04:55:44.241Z,101267.53
2023-04-25T04:58:17.389Z,101242.72
2023-04-25T05:00:46.295Z,101267.63
2023-04-25T05:03:13.157Z,101271.41
2023-04-25T05:05:42.910Z,101273.50
2023-04-25T05:08:09.514Z,101267.63
2023-04-25T05:10:36.405Z,101260.94
2023-04-25T05:13:05.756Z,101273.16
2023-04-25T05:15:34.899Z,101287.59
2023-04-25T05:18:02.541Z,101283.25
2023-04-25T05:20:31.644Z,101299.41
2023-04-25T05:22:58.353Z,101303.63
2023-04-25T05:25:24.988Z,101310.34
2023-04-25T05:27:53.469Z,101312.25
2023-04-25T05:30:22.749Z,101304.03
2023-04-25T05:32:49.513Z,101315.25
2023-04-25T05:35:16.379Z,101315.56
2023-04-25T05:37:47.937Z,101319.13
2023-04-25T05:40:14.834Z,101331.06
2023-04-25T05:42:41.477Z,101326.66
2023-04-25T05:45:10.669Z,101312.94
2023-04-25T05:47:37.679Z,101327.78
2023-04-25T05:50:04.913Z,101330.66
2023-04-25T05:52:31.643Z,101316.69
2023-04-25T05:54:58.225Z,101289.84
2023-04-25T05:57:26.478Z,101312.22
2023-04-25T05:59:53.912Z,101327.06
2023-04-25T06:02:22.132Z,101322.81
2023-04-25T06:04:53.667Z,101324.03
2023-04-25T06:07:23.343Z,101328.69
2023-04-25T06:09:52.413Z,101319.44
2023-04-25T06:12:19.090Z,101334.50
2023-04-25T06:14:45.982Z,101306.59
2023-04-25T06:17:12.669Z,101328.59
2023-04-25T06:19:39.433Z,101289.06
2023-04-25T06:22:08.675Z,101330.78
2023-04-25T06:24:35.848Z,101320.09
2023-04-25T06:27:02.522Z,101315.97
2023-04-25T06:29:29.349Z,101312.13
2023-04-25T06:31:56.027Z,101324.72
2023-04-25T06:34:22.928Z,101326.22
2023-04-25T06:36:49.647Z,101330.09
2023-04-25T06:39:16.372Z,101329.44
2023-04-25T06:41:43.102Z,101341.59
2023-04-25T06:44:09.885Z,101334.38
2023-04-25T06:46:39.097Z,101327.09
2023-04-25T06:49:05.937Z,101337.53
2023-04-25T06:51:32.775Z,101343.13
2023-04-25T06:54:01.899Z,101348.25
2023-04-25T06:56:30.803Z,101336.91
2023-04-25T06:58:57.682Z,101345.31
2023-04-25T07:01:27.075Z,101339.91
2023-04-25T07:03:56.457Z,101365.13
2023-04-25T07:06:26.964Z,101366.72
2023-04-25T07:08:53.758Z,101351.88
2023-04-25T07:11:22.702Z,101371.22
2023-04-25T07:13:49.350Z,101366.22
2023-04-25T07:16:18.619Z,101369.06
2023-04-25T07:18:45.701Z,101376.75
2023-04-25T07:21:12.392Z,101384.63
2023-04-25T07:23:41.768Z,101371.78
2023-04-25T07:26:08.974Z,101385.28
2023-04-25T07:28:35.909Z,101390.97
2023-04-25T07:31:02.659Z,101305.56
2023-04-25T07:33:29.927Z,101383.06
2023-04-25T07:35:56.972Z,101377.75
2023-04-25T07:38:23.795Z,101401.38
2023-04-25T07:40:50.869Z,101405.38
2023-04-25T07:43:18.020Z,101404.16
2023-04-25T07:45:45.554Z,101430.97
2023-04-25T07:48:12.319Z,101419.94
2023-04-25T07:50:39.155Z,101434.81
2023-04-25T07:53:05.754Z,101437.34
2023-04-25T07:55:32.385Z,101439.69
2023-04-25T07:58:01.274Z,101399.41
2023-04-25T08:00:30.359Z,101436.81
2023-04-25T08:02:59.393Z,101452.13
2023-04-25T08:05:26.423Z,101452.66
2023-04-25T08:07:53.399Z,101454.84
2023-04-25T08:10:20.082Z,101453.00
2023-04-25T08:12:46.827Z,101450.28
2023-04-25T08:15:14.845Z,101463.28
2023-04-25T08:17:45.038Z,101446.19
2023-04-25T08:20:12.379Z,101449.84
2023-04-25T08:22:38.992Z,101467.50
2023-04-25T08:25:06.017Z,101470.75
2023-04-25T08:27:32.627Z,101473.84
2023-04-25T08:29:59.788Z,101471.34
2023-04-25T08:32:28.463Z,101481.66
2023-04-25T08:34:56.458Z,101468.47
2023-04-25T08:37:25.952Z,101473.16
2023-04-25T08:39:54.951Z,101489.09
2023-04-25T08:42:22.881Z,101483.00
2023-04-25T08:44:51.076Z,101478.41
2023-04-25T08:47:22.893Z,101485.59
2023-04-25T08:49:53.336Z,101490.94
2023-04-25T08:52:24.925Z,101493.81
2023-04-25T08:54:55.465Z,101495.97
2023-04-25T08:57:22.909Z,101494.19
2023-04-25T08:59:53.188Z,101493.50
2023-04-25T09:02:21.983Z,101507.44
2023-04-25T09:04:49.602Z,101512.81
2023-04-25T09:07:22.146Z,101513.75
2023-04-25T09:09:48.796Z,101539.94
2023-04-25T09:12:15.462Z,101555.97
2023-04-25T09:14:44.900Z,101550.16
2023-04-25T09:17:11.876Z,101563.28
2023-04-25T09:19:42.287Z,101564.41
2023-04-25T09:22:12.255Z,101580.16
2023-04-25T09:24:41.713Z,101525.38
2023-04-25T09:27:19.723Z,101559.00
2023-04-25T09:29:48.682Z,101553.41
2023-04-25T09:32:23.236Z,101572.38
2023-04-25T09:34:55.206Z,101575.03
2023-04-25T09:37:23.989Z,101572.53
2023-04-25T09:39:55.248Z,101572.16
2023-04-25T09:42:27.770Z,101548.66
2023-04-25T09:44:56.293Z,101564.94
2023-04-25T09:47:27.964Z,101537.97
2023-04-25T09:49:56.104Z,101564.53
2023-04-25T09:52:26.544Z,101557.56
2023-04-25T09:54:53.902Z,101569.41
2023-04-25T09:57:27.030Z,101505.22
2023-04-25T09:59:55.634Z,101563.00
2023-04-25T10:02:24.733Z,101533.97
2023-04-25T10:04:55.985Z,101557.44
2023-04-25T10:07:27.106Z,101561.25
2023-04-25T10:10:02.887Z,101560.94
2023-04-25T10:12:33.762Z,101558.22
2023-04-25T10:15:01.514Z,101560.06
2023-04-25T10:17:31.251Z,101546.38
2023-04-25T10:19:58.497Z,101558.38
2023-04-25T10:22:32.161Z,101531.22
2023-04-25T10:24:59.353Z,101547.22
2023-04-25T10:27:29.171Z,101564.63
2023-04-25T10:30:16.428Z,101552.00
2023-04-25T10:32:46.093Z,101566.53
2023-04-25T10:35:14.324Z,101570.91
2023-04-25T10:38:05.619Z,101587.31
2023-04-25T10:40:33.244Z,101587.19
2023-04-25T10:43:38.000Z,101596.72
2023-04-25T10:46:20.814Z,101609.09
2023-04-25T10:48:51.530Z,101614.50
2023-04-25T10:51:26.543Z,101615.16
2023-04-25T10:53:56.411Z,101630.69
2023-04-25T10:56:35.157Z,101620.19
2023-04-25T10:59:16.278Z,101633.09
2023-04-25T11:01:52.892Z,101617.78
2023-04-25T11:04:24.825Z,101580.72
2023-04-25T11:07:36.589Z,101615.97
2023-04-25T11:10:07.364Z,101635.81
2023-04-25T11:12:36.469Z,101631.03
2023-04-25T11:15:10.493Z,101612.75
2023-04-25T11:17:37.183Z,101617.31
2023-04-25T11:20:08.417Z,101616.31
2023-04-25T11:22:38.348Z,101632.75
2023-04-25T11:25:09.771Z,101628.56
2023-04-25T11:27:53.670Z,101610.00
2023-04-25T11:30:23.600Z,101627.25
2023-04-25T11:32:51.013Z,101619.75
2023-04-25T11:35:17.733Z,101630.38
2023-04-25T11:37:45.227Z,101600.41
2023-04-25T11:40:12.879Z,101608.72
2023-04-25T11:42:47.323Z,101618.84
2023-04-25T11:45:15.064Z,101608.00
2023-04-25T11:47:41.976Z,101580.88
2023-04-25T11:50:09.568Z,101635.03
2023-04-25T11:52:49.195Z,101635.31
2023-04-25T11:55:16.620Z,101629.22
2023-04-25T11:57:44.995Z,101629.47
2023-04-25T12:00:20.206Z,101624.47
2023-04-25T12:02:49.102Z,101645.25
2023-04-25T12:05:30.968Z,101621.06
2023-04-25T12:07:59.207Z,101632.59
2023-04-25T12:10:26.921Z,101654.31
2023-04-25T12:12:53.841Z,101644.72
2023-04-25T12:15:26.201Z,101649.75
2023-04-25T12:17:54.986Z,101648.56
2023-04-25T12:20:32.990Z,101646.28
2023-04-25T12:22:59.557Z,101643.38
2023-04-25T12:25:42.945Z,101652.63
2023-04-25T12:28:24.677Z,101663.44
2023-04-25T12:31:05.663Z,101664.72
2023-04-25T12:33:34.670Z,101669.91
2023-04-25T12:36:09.532Z,101675.25
2023-04-25T12:38:45.083Z,101680.44
2023-04-25T12:41:13.073Z,101685.06
2023-04-25T12:43:42.130Z,101662.00
2023-04-25T12:46:09.470Z,101687.03
2023-04-25T12:48:36.155Z,101677.28
2023-04-25T12:51:02.745Z,101665.63
2023-04-25T12:53:29.379Z,101678.25
2023-04-25T12:58:22.495Z,101685.44
2023-04-25T13:00:49.535Z,101681.13
2023-04-25T13:03:19.157Z,101668.84
2023-04-25T13:05:45.837Z,101678.50
2023-04-25T13:08:12.562Z,101674.22
2023-04-25T13:10:43.982Z,101681.75
2023-04-25T13:13:10.630Z,101662.88
2023-04-25T13:15:37.583Z,101662.56
2023-04-25T13:18:06.625Z,101595.00
2023-04-25T13:20:36.765Z,101659.22
2023-04-25T13:23:03.426Z,101654.94
2023-04-25T13:25:30.132Z,101666.03
2023-04-25T13:27:56.917Z,101685.34
2023-04-25T13:30:23.527Z,101686.97
2023-04-25T13:32:50.323Z,101684.63
2023-04-25T13:35:18.090Z,101699.38
2023-04-25T13:37:47.213Z,101702.69
2023-04-25T13:40:16.193Z,101702.19
2023-04-25T13:42:46.378Z,101687.19
2023-04-25T13:45:13.215Z,101656.44
2023-04-25T13:47:42.191Z,101699.66
2023-04-25T13:50:09.345Z,101688.41
2023-04-25T13:52:36.150Z,101696.66
2023-04-25T13:55:04.769Z,101648.00
2023-04-25T13:57:39.388Z,101683.22
2023-04-25T14:00:09.896Z,101698.34
2023-04-25T14:02:39.745Z,101673.59
2023-04-25T14:05:07.902Z,101691.78
2023-04-25T14:07:37.697Z,101641.94
2023-04-25T14:10:05.936Z,101674.97
2023-04-25T14:12:33.518Z,101680.09
2023-04-25T14:15:05.352Z,101696.50
2023-04-25T14:17:34.360Z,101693.28
2023-04-25T14:20:01.046Z,101697.78
2023-04-25T14:22:30.108Z,101688.41
2023-04-25T14:24:59.160Z,101703.34
2023-04-25T14:27:28.607Z,101698.78
2023-04-25T14:29:55.863Z,101695.06
2023-04-25T14:32:22.910Z,101696.13
2023-04-25T14:34:49.620Z,101685.41
2023-04-25T14:37:16.271Z,101684.19
2023-04-25T14:39:46.452Z,101697.53
2023-04-25T14:42:13.145Z,101692.59
2023-04-25T14:44:39.719Z,101703.38
2023-04-25T14:47:06.611Z,101701.28
2023-04-25T14:49:35.823Z,101698.34
2023-04-25T14:52:02.966Z,101700.53
2023-04-25T14:54:29.584Z,101695.31
2023-04-25T14:56:58.702Z,101705.81
2023-04-25T14:59:29.231Z,101700.56
2023-04-25T15:01:59.788Z,101692.97
2023-04-25T15:04:27.128Z,101693.19
2023-04-25T15:06:56.304Z,101688.41
2023-04-25T15:09:24.963Z,101703.78
2023-04-25T15:11:52.235Z,101705.84
2023-04-25T15:14:19.073Z,101717.34
2023-04-25T15:16:47.901Z,101709.09
2023-04-25T15:19:14.569Z,101718.41
2023-04-25T15:21:44.130Z,101723.81
2023-04-25T15:24:12.159Z,101691.53
2023-04-25T15:26:41.020Z,101720.22
2023-04-25T15:29:07.806Z,101719.25
2023-04-25T15:31:36.805Z,101715.50
2023-04-25T15:34:03.558Z,101732.28
2023-04-25T15:36:31.382Z,101718.31
2023-04-25T15:38:58.329Z,101711.06
2023-04-25T15:41:26.373Z,101741.69
2023-04-25T15:43:55.762Z,101739.50
2023-04-25T15:46:25.070Z,101735.91
2023-04-25T15:48:52.133Z,101744.44
2023-04-25T15:51:18.732Z,101733.09
2023-04-25T15:53:47.627Z,101732.16
2023-04-25T15:56:14.306Z,101756.91
2023-04-25T15:58:40.872Z,101753.41
2023-04-25T16:01:07.498Z,101747.03
2023-04-25T16:03:36.203Z,101736.56
2023-04-25T16:06:06.047Z,101747.25
2023-04-25T16:08:35.913Z,101752.19
2023-04-25T16:11:03.348Z,101749.78
2023-04-25T16:13:30.218Z,101732.34
2023-04-25T16:16:02.150Z,101757.06
2023-04-25T16:18:31.191Z,101744.91
2023-04-25T16:20:57.816Z,101759.31
2023-04-25T16:23:24.480Z,101756.88
2023-04-25T16:25:54.942Z,101751.41
2023-04-25T16:28:26.416Z,101711.88
2023-04-25T16:30:53.072Z,101757.44
2023-04-25T16:33:19.718Z,101768.91
2023-04-25T16:35:46.337Z,101763.53
2023-04-25T16:38:14.966Z,101772.13
2023-04-25T16:40:41.622Z,101778.34
2023-04-25T16:43:08.190Z,101787.94
2023-04-25T16:45:34.797Z,101782.13
2023-04-25T16:48:01.398Z,101776.19
2023-04-25T16:50:27.956Z,101769.59
2023-04-25T16:52:54.697Z,101782.97
2023-04-25T16:55:23.585Z,101770.88
2023-04-25T16:57:52.526Z,101780.75
2023-04-25T17:00:19.495Z,101773.41
2023-04-25T17:02:46.308Z,101763.63
2023-04-25T17:05:13.629Z,101769.16
2023-04-25T17:07:42.855Z,101766.66
2023-04-25T17:10:09.986Z,101754.03
2023-04-25T17:12:39.198Z,101771.84
2023-04-25T17:15:06.624Z,101780.47
2023-04-25T17:17:33.321Z,101784.50
2023-04-25T17:20:02.325Z,101796.03
2023-04-25T17:22:29.041Z,101787.16
2023-04-25T17:24:55.638Z,101799.50
2023-04-25T17:27:24.360Z,101804.47
2023-04-25T17:29:51.296Z,101804.97
2023-04-25T17:32:20.518Z,101812.03
2023-04-25T17:34:48.535Z,101810.66
2023-04-25T17:37:17.309Z,101816.50
2023-04-25T17:39:44.524Z,101810.13
2023-04-25T17:42:15.086Z,101814.09
2023-04-25T17:44:43.197Z,101811.97
2023-04-25T17:47:12.659Z,101807.22
2023-04-25T17:49:39.607Z,101815.28
2023-04-25T17:52:07.340Z,101816.53
2023-04-25T17:54:35.604Z,101825.69
2023-04-25T17:57:02.669Z,101825.91
2023-04-25T17:59:32.374Z,101831.81
2023-04-25T18:02:01.492Z,101830.56
2023-04-25T18:04:31.005Z,101832.91
2023-04-25T18:07:00.251Z,101832.28
2023-04-25T18:09:27.883Z,101843.63
2023-04-25T18:11:54.766Z,101822.88
2023-04-25T18:14:22.856Z,101844.94
2023-04-25T18:16:55.524Z,101856.19
2023-04-25T18:19:23.332Z,101849.47
2023-04-25T18:21:54.494Z,101853.50
2023-04-25T18:24:22.568Z,101857.56
2023-04-25T18:26:49.898Z,101840.66
2023-04-25T18:29:31.393Z,101852.16
2023-04-25T18:32:00.653Z,101858.16
2023-04-25T18:34:29.860Z,101847.53
2023-04-25T18:36:59.284Z,101864.75
2023-04-25T18:39:27.752Z,101855.28
2023-04-25T18:42:01.330Z,101787.91
2023-04-25T18:44:33.708Z,101861.59
2023-04-25T18:47:00.884Z,101864.84
2023-04-25T18:49:27.497Z,101863.69
2023-04-25T18:51:57.712Z,101866.72
2023-04-25T18:54:24.410Z,101877.81
2023-04-25T18:56:55.721Z,101883.03
2023-04-25T18:59:22.367Z,101879.88
2023-04-25T19:01:52.027Z,101884.88
2023-04-25T19:04:18.733Z,101895.06
2023-04-25T19:06:46.418Z,101892.88
2023-04-25T19:09:15.518Z,101893.19
2023-04-25T19:11:42.249Z,101890.16
2023-04-25T19:14:08.857Z,101904.38
2023-04-25T19:16:38.915Z,101903.63
2023-04-25T19:19:09.641Z,101895.09
2023-04-25T19:21:41.625Z,101907.25
2023-04-25T19:24:08.721Z,101898.75
2023-04-25T19:26:35.725Z,101887.00
2023-04-25T19:29:10.330Z,101915.34
2023-04-25T19:31:38.818Z,101905.81
2023-04-25T19:34:06.730Z,101910.63
2023-04-25T19:36:33.943Z,101915.50
2023-04-25T19:39:04.479Z,101916.59
2023-04-25T19:41:35.864Z,101913.53
2023-04-25T19:44:07.194Z,101922.53
2023-04-25T19:46:40.047Z,101922.94
2023-04-25T19:49:07.836Z,101920.50
2023-04-25T19:51:37.804Z,101878.16
2023-04-25T19:54:06.902Z,101921.09
2023-04-25T19:56:35.797Z,101928.09
2023-04-25T19:59:02.747Z,101913.41
2023-04-25T20:01:31.919Z,101906.41
2023-04-25T20:03:58.600Z,101906.81
2023-04-25T20:06:25.485Z,101922.69
2023-04-25T20:08:57.842Z,101893.97
2023-04-25T20:11:24.681Z,101934.16
2023-04-25T20:13:53.990Z,101930.94
2023-04-25T20:16:23.267Z,101919.97
2023-04-25T20:18:55.915Z,101820.16
2023-04-25T20:21:25.497Z,101940.63
2023-04-25T20:23:52.309Z,101945.38
2023-04-25T20:26:19.982Z,101943.69
2023-04-25T20:28:48.166Z,101942.06
2023-04-25T20:31:14.999Z,101928.31
2023-04-25T20:33:43.849Z,101949.59
2023-04-25T20:36:10.667Z,101947.19
2023-04-25T20:38:37.786Z,101946.50
2023-04-25T20:41:07.378Z,101943.28
2023-04-25T20:43:37.559Z,101936.41
2023-04-25T20:46:04.765Z,101941.94
2023-04-25T20:48:31.635Z,101942.03
2023-04-25T20:51:00.676Z,101930.84
2023-04-25T20:53:35.175Z,101936.34
2023-04-25T20:56:02.708Z,101925.13
2023-04-25T20:58:32.107Z,101936.63
2023-04-25T21:00:59.234Z,101941.53
2023-04-25T21:03:26.530Z,101935.63
2023-04-25T21:05:53.792Z,101949.66
2023-04-25T21:08:20.974Z,101933.00
2023-04-25T21:10:47.834Z,101943.56
2023-04-25T21:13:17.660Z,101943.06
2023-04-25T21:15:47.038Z,101940.63
2023-04-25T21:18:17.772Z,101937.41
2023-04-25T21:20:46.560Z,101948.75
2023-04-25T21:23:15.914Z,101958.88
2023-04-25T21:25:43.239Z,101947.63
2023-04-25T21:28:12.693Z,101939.81
2023-04-25T21:30:39.968Z,101924.44
2023-04-25T21:33:07.017Z,101958.94
2023-04-25T21:35:34.285Z,101958.84
2023-04-25T21:38:01.222Z,101963.63
2023-04-25T21:40:30.471Z,101962.16
2023-04-25T21:42:57.320Z,101964.09
2023-04-25T21:45:24.685Z,101961.47
2023-04-25T21:47:51.751Z,101947.00
2023-04-25T21:50:19.749Z,101942.44
2023-04-25T21:52:49.408Z,101936.78
2023-04-25T21:55:17.130Z,101975.50
2023-04-25T21:57:43.908Z,101961.56
2023-04-25T22:00:21.344Z,101973.06
2023-04-25T22:02:48.949Z,101958.41
2023-04-25T22:05:22.624Z,101974.22
2023-04-25T22:07:51.290Z,101976.38
2023-04-25T22:10:20.617Z,101962.41
2023-04-25T22:12:50.879Z,101953.00
2023-04-25T22:15:24.109Z,101975.06
2023-04-25T22:17:52.529Z,101961.97
2023-04-25T22:20:23.318Z,101907.44
2023-04-25T22:22:53.586Z,101966.84
2023-04-25T22:25:21.441Z,101977.75
2023-04-25T22:27:51.559Z,101965.63
2023-04-25T22:30:21.754Z,101942.03
2023-04-25T22:32:48.690Z,101980.69
2023-04-25T22:35:15.633Z,101987.16
2023-04-25T22:37:42.499Z,101979.16
2023-04-25T22:40:12.332Z,101979.38
2023-04-25T22:42:43.330Z,101977.00
2023-04-25T22:45:11.266Z,101989.75
2023-04-25T22:47:41.087Z,101974.41
2023-04-25T22:50:13.071Z,101994.91
2023-04-25T22:52:42.112Z,101981.97
2023-04-25T22:55:10.609Z,101934.66
2023-04-25T22:57:40.213Z,102004.13
2023-04-25T23:00:16.183Z,102010.50
2023-04-25T23:02:47.376Z,102005.19
2023-04-25T23:05:15.412Z,101999.31
2023-04-25T23:07:44.198Z,102009.16
2023-04-25T23:10:12.236Z,101998.06
2023-04-25T23:12:40.357Z,102010.63
2023-04-25T23:15:08.412Z,102016.81
2023-04-25T23:17:38.240Z,101981.06
2023-04-25T23:20:07.976Z,101972.25
2023-04-25T23:22:35.198Z,102001.44
2023-04-25T23:25:02.665Z,101985.22
2023-04-25T23:27:29.600Z,102005.31
2023-04-25T23:29:56.943Z,102011.50
2023-04-25T23:32:25.806Z,101997.28
2023-04-25T23:34:52.806Z,102006.97
2023-04-25T23:37:19.747Z,102008.78
2023-04-25T23:39:52.670Z,102003.53
2023-04-25T23:42:19.504Z,101980.22
2023-04-25T23:44:48.452Z,101999.34
2023-04-25T23:47:17.848Z,101984.59
2023-04-25T23:49:45.222Z,101996.88
2023-04-25T23:52:12.612Z,101998.81
2023-04-25T23:54:39.502Z,101970.31
2023-04-25T23:57:06.332Z,101989.25
2023-04-25T23:59:33.506Z,101958.13
